sensor_id;sensor_type;location;lat;lon;timestamp;pressure;altitude;pressure_sealevel;temperature;humidity
63582;BME280;49727;51.078;17.066;2023-04-15T00:04:26;98814.16;;;9.85;81.25
63582;BME280;49727;51.078;17.066;2023-04-15T00:19:27;98815.34;;;9.82;81.57
63582;BME280;49727;51.078;17.066;2023-04-15T00:34:27;98812.31;;;9.92;81.55
63582;BME280;49727;51.078;17.066;2023-04-15T00:49:28;98818.06;;;9.95;81.21
63582;BME280;49727;51.078;17.066;2023-04-15T01:04:29;98817.63;;;9.92;80.83
63582;BME280;49727;51.078;17.066;2023-04-15T01:19:29;98818.28;;;9.94;81.28
63582;BME280;49727;51.078;17.066;2023-04-15T01:34:30;98820.94;;;9.94;81.05
63582;BME280;49727;51.078;17.066;2023-04-15T01:49:31;98830.94;;;9.92;80.73
63582;BME280;49727;51.078;17.066;2023-04-15T02:04:31;98841.56;;;9.92;81.10
63582;BME280;49727;51.078;17.066;2023-04-15T02:19:34;98836.94;;;9.59;80.16
63582;BME280;49727;51.078;17.066;2023-04-15T02:34:34;98853.63;;;9.11;81.23
63582;BME280;49727;51.078;17.066;2023-04-15T02:49:35;98852.72;;;8.97;81.72
63582;BME280;49727;51.078;17.066;2023-04-15T03:04:35;98881.22;;;8.88;81.87
63582;BME280;49727;51.078;17.066;2023-04-15T03:19:35;98906.44;;;8.77;81.51
63582;BME280;49727;51.078;17.066;2023-04-15T03:34:35;98913.25;;;8.43;80.98
63582;BME280;49727;51.078;17.066;2023-04-15T03:49:36;98962.44;;;8.09;80.59
63582;BME280;49727;51.078;17.066;2023-04-15T04:04:36;98976.00;;;7.85;80.99
63582;BME280;49727;51.078;17.066;2023-04-15T04:19:36;98999.84;;;7.70;81.40
63582;BME280;49727;51.078;17.066;2023-04-15T04:34:37;99014.63;;;7.64;80.94
63582;BME280;49727;51.078;17.066;2023-04-15T04:49:37;99042.78;;;7.65;80.78
63582;BME280;49727;51.078;17.066;2023-04-15T05:04:37;99045.00;;;7.76;80.57
63582;BME280;49727;51.078;17.066;2023-04-15T05:19:38;99046.88;;;7.68;79.47
63582;BME280;49727;51.078;17.066;2023-04-15T05:34:38;99071.69;;;7.90;79.52
63582;BME280;49727;51.078;17.066;2023-04-15T05:49:38;99082.59;;;7.95;78.95
63582;BME280;49727;51.078;17.066;2023-04-15T06:04:39;99103.28;;;8.14;77.00
63582;BME280;49727;51.078;17.066;2023-04-15T06:19:39;99126.53;;;8.12;75.68
63582;BME280;49727;51.078;17.066;2023-04-15T06:34:40;99128.06;;;8.45;74.53
63582;BME280;49727;51.078;17.066;2023-04-15T06:49:40;99130.97;;;8.80;73.39
63582;BME280;49727;51.078;17.066;2023-04-15T07:04:42;99144.81;;;8.60;71.28
63582;BME280;49727;51.078;17.066;2023-04-15T07:19:42;99158.56;;;8.79;69.21
63582;BME280;49727;51.078;17.066;2023-04-15T07:34:43;99174.31;;;8.95;69.27
63582;BME280;49727;51.078;17.066;2023-04-15T07:49:43;99177.63;;;9.34;68.16
63582;BME280;49727;51.078;17.066;2023-04-15T08:04:44;99185.09;;;10.32;65.57
63582;BME280;49727;51.078;17.066;2023-04-15T08:19:44;99206.78;;;11.27;64.72
63582;BME280;49727;51.078;17.066;2023-04-15T08:34:45;99218.09;;;12.45;62.61
63582;BME280;49727;51.078;17.066;2023-04-15T08:49:45;99232.38;;;14.84;57.73
63582;BME280;49727;51.078;17.066;2023-04-15T09:04:47;99240.69;;;16.65;51.50
63582;BME280;49727;51.078;17.066;2023-04-15T09:19:47;99233.56;;;21.03;45.93
63582;BME280;49727;51.078;17.066;2023-04-15T09:34:48;99243.03;;;23.28;36.06
63582;BME280;49727;51.078;17.066;2023-04-15T09:49:55;99258.97;;;31.28;27.13
63582;BME280;49727;51.078;17.066;2023-04-15T10:04:56;99264.63;;;27.68;24.59
63582;BME280;49727;51.078;17.066;2023-04-15T10:19:57;99257.47;;;33.53;18.03
63582;BME280;49727;51.078;17.066;2023-04-15T10:35:00;99269.69;;;21.92;27.80
63582;BME280;49727;51.078;17.066;2023-04-15T10:50:00;99274.56;;;23.24;28.22
63582;BME280;49727;51.078;17.066;2023-04-15T11:05:01;99288.06;;;19.65;30.32
63582;BME280;49727;51.078;17.066;2023-04-15T11:20:01;99281.56;;;23.46;25.88
63582;BME280;49727;51.078;17.066;2023-04-15T11:35:03;99308.16;;;21.84;28.79
63582;BME280;49727;51.078;17.066;2023-04-15T11:50:16;99303.41;;;22.99;28.16
63582;BME280;49727;51.078;17.066;2023-04-15T12:05:17;99315.50;;;23.54;26.74
63582;BME280;49727;51.078;17.066;2023-04-15T12:20:23;99322.56;;;23.60;27.15
63582;BME280;49727;51.078;17.066;2023-04-15T12:35:24;99320.00;;;22.67;28.91
63582;BME280;49727;51.078;17.066;2023-04-15T12:50:24;99328.50;;;21.28;28.52
63582;BME280;49727;51.078;17.066;2023-04-15T13:05:25;99321.84;;;19.06;32.11
63582;BME280;49727;51.078;17.066;2023-04-15T13:20:26;99330.78;;;18.26;33.30
63582;BME280;49727;51.078;17.066;2023-04-15T13:35:26;99330.44;;;19.81;30.91
63582;BME280;49727;51.078;17.066;2023-04-15T13:50:27;99332.34;;;19.64;32.36
63582;BME280;49727;51.078;17.066;2023-04-15T14:05:27;99326.25;;;18.44;33.43
63582;BME280;49727;51.078;17.066;2023-04-15T14:20:28;99340.09;;;18.07;32.81
63582;BME280;49727;51.078;17.066;2023-04-15T14:35:28;99346.59;;;18.23;33.31
63582;BME280;49727;51.078;17.066;2023-04-15T14:50:28;99357.00;;;17.90;33.69
63582;BME280;49727;51.078;17.066;2023-04-15T15:05:29;99375.44;;;17.70;33.85
63582;BME280;49727;51.078;17.066;2023-04-15T15:20:29;99374.78;;;17.15;34.63
63582;BME280;49727;51.078;17.066;2023-04-15T15:35:31;99385.31;;;17.52;34.43
63582;BME280;49727;51.078;17.066;2023-04-15T15:50:32;99410.94;;;17.79;35.29
63582;BME280;49727;51.078;17.066;2023-04-15T16:05:34;99417.63;;;17.29;36.46
63582;BME280;49727;51.078;17.066;2023-04-15T16:20:34;99432.56;;;16.40;37.56
63582;BME280;49727;51.078;17.066;2023-04-15T16:35:35;99452.56;;;15.51;38.92
63582;BME280;49727;51.078;17.066;2023-04-15T16:50:35;99470.56;;;14.87;40.03
63582;BME280;49727;51.078;17.066;2023-04-15T17:05:36;99483.41;;;14.26;41.08
63582;BME280;49727;51.078;17.066;2023-04-15T17:20:37;99513.00;;;13.52;42.80
63582;BME280;49727;51.078;17.066;2023-04-15T17:35:38;99516.63;;;12.98;44.20
63582;BME280;49727;51.078;17.066;2023-04-15T17:50:39;99546.69;;;12.51;45.34
63582;BME280;49727;51.078;17.066;2023-04-15T18:05:39;99587.84;;;12.22;46.60
63582;BME280;49727;51.078;17.066;2023-04-15T18:20:40;99617.88;;;12.02;50.42
63582;BME280;49727;51.078;17.066;2023-04-15T18:35:40;99640.13;;;11.66;53.31
63582;BME280;49727;51.078;17.066;2023-04-15T18:50:42;99657.97;;;11.44;54.98
63582;BME280;49727;51.078;17.066;2023-04-15T19:05:42;99666.41;;;11.26;56.97
63582;BME280;49727;51.078;17.066;2023-04-15T19:20:43;99695.38;;;11.14;58.10
63582;BME280;49727;51.078;17.066;2023-04-15T19:35:43;99696.38;;;10.98;58.69
63582;BME280;49727;51.078;17.066;2023-04-15T19:50:43;99709.53;;;10.85;59.57
63582;BME280;49727;51.078;17.066;2023-04-15T20:05:44;99718.19;;;10.72;60.58
63582;BME280;49727;51.078;17.066;2023-04-15T20:20:44;99728.72;;;10.65;61.12
63582;BME280;49727;51.078;17.066;2023-04-15T20:35:45;99741.66;;;10.54;61.87
63582;BME280;49727;51.078;17.066;2023-04-15T20:50:45;99748.44;;;10.41;62.16
63582;BME280;49727;51.078;17.066;2023-04-15T21:05:46;99765.00;;;10.28;63.19
63582;BME280;49727;51.078;17.066;2023-04-15T21:20:54;99781.91;;;10.12;63.67
63582;BME280;49727;51.078;17.066;2023-04-15T21:35:55;99782.44;;;9.85;64.09
63582;BME280;49727;51.078;17.066;2023-04-15T21:50:59;99793.84;;;9.93;65.46
63582;BME280;49727;51.078;17.066;2023-04-15T22:06:02;99809.25;;;10.06;65.50
63582;BME280;49727;51.078;17.066;2023-04-15T22:21:03;99823.19;;;9.77;65.47
63582;BME280;49727;51.078;17.066;2023-04-15T22:36:03;99839.31;;;9.36;65.92
63582;BME280;49727;51.078;17.066;2023-04-15T22:51:03;99867.91;;;9.17;67.32
63582;BME280;49727;51.078;17.066;2023-04-15T23:06:05;99881.22;;;9.01;67.96
63582;BME280;49727;51.078;17.066;2023-04-15T23:21:05;99879.75;;;9.06;68.15
63582;BME280;49727;51.078;17.066;2023-04-15T23:36:06;99865.47;;;8.99;69.16
63582;BME280;49727;51.078;17.066;2023-04-15T23:51:06;99872.63;;;8.90;69.21
